Time;durP1;ratioP1;P1;durP2;ratioP2;P2;SDS_P1;SDS_P2;PMS_P1;PMS_P2;Temp;Humidity;BMP_temperature;BMP_pressure;BME280_temperature;BME280_humidity;BME280_pressure;Samples;Min_cycle;Max_cycle;Signal;HPM_P1;HPM_P2
2022/03/01 00:02:07;;;;;;;9.70;6.17;;;-0.10;99.90;;;0.40;76.10;-19740.50;5092652;28;20203;-60
2022/03/01 00:04:37;;;;;;;9.33;6.53;;;-0.10;99.90;;;0.43;76.35;-19741.34;5093120;28;20224;-59
2022/03/01 00:07:07;;;;;;;10.50;6.47;;;-0.20;99.90;;;0.33;77.23;-19737.94;5092388;28;20251;-59
2022/03/01 00:09:35;;;;;;;11.17;5.90;;;-0.20;99.90;;;0.33;76.72;-19737.94;5092120;28;20315;-57
2022/03/01 00:12:05;;;;;;;10.10;6.80;;;-0.20;99.90;;;0.34;76.55;-19738.28;5092279;28;20730;-59
2022/03/01 00:14:33;;;;;;;11.43;6.50;;;-0.30;99.90;;;0.27;77.07;-19735.88;5091833;28;20315;-58
2022/03/01 00:17:01;;;;;;;9.67;6.50;;;-0.30;99.90;;;0.50;75.37;-19743.91;5092381;28;20255;-58
2022/03/01 00:19:31;;;;;;;9.33;6.53;;;-0.20;99.90;;;0.47;75.85;-19742.72;5093017;28;20192;-59
2022/03/01 00:22:01;;;;;;;8.60;6.37;;;-0.20;99.90;;;0.51;76.13;-19744.09;5092241;28;20664;-60
2022/03/01 00:24:29;;;;;;;10.57;7.23;;;-0.20;99.90;;;0.58;75.49;-19746.66;5091914;28;20560;-60
2022/03/01 00:26:57;;;;;;;9.70;6.53;;;-0.20;99.90;;;0.56;75.53;-19745.97;5092035;28;20307;-57
2022/03/01 00:29:25;;;;;;;9.53;6.97;;;-0.20;99.90;;;0.44;76.37;-19741.69;5091769;28;20228;-59
2022/03/01 00:31:53;;;;;;;10.40;6.83;;;-0.20;99.90;;;0.50;75.88;-19743.75;5091168;28;20696;-59
2022/03/01 00:34:21;;;;;;;10.63;6.90;;;-0.20;99.90;;;0.45;76.27;-19742.03;5091498;28;20224;-57
2022/03/01 00:36:49;;;;;;;11.43;6.90;;;-0.20;99.90;;;0.38;75.95;-19739.81;5091825;28;20230;-60
2022/03/01 00:39:18;;;;;;;10.13;6.93;;;-0.20;99.90;;;0.41;75.74;-19740.66;5091371;28;20244;-57
2022/03/01 00:41:47;;;;;;;10.87;7.63;;;-0.20;99.90;;;0.32;76.43;-19737.78;5091278;28;20224;-59
2022/03/01 00:44:15;;;;;;;9.20;6.43;;;-0.30;99.90;;;0.36;77.00;-19738.97;5091660;28;20315;-59
2022/03/01 00:46:44;;;;;;;12.37;6.83;;;-0.30;99.90;;;0.59;76.14;-19746.81;5092341;28;20200;-60
2022/03/01 00:49:13;;;;;;;8.40;6.27;;;-0.20;99.90;;;0.38;76.77;-19739.66;5091511;28;20299;-58
2022/03/01 00:51:41;;;;;;;11.87;6.57;;;-0.20;99.90;;;0.30;77.46;-19736.91;5071511;28;20332;-59
2022/03/01 00:54:09;;;;;;;10.13;6.73;;;-0.30;99.90;;;0.49;76.48;-19743.41;5071334;28;20232;-59
2022/03/01 00:56:39;;;;;;;8.90;6.97;;;-0.30;99.90;;;0.43;77.23;-19741.53;5071447;28;20232;-57
2022/03/01 00:59:07;;;;;;;8.50;6.40;;;-0.30;99.90;;;0.36;77.40;-19739.13;5071026;28;20668;-59
2022/03/01 01:01:36;;;;;;;9.80;6.93;;;-0.30;99.90;;;0.25;77.72;-19735.19;5071525;28;20209;-60
2022/03/01 01:04:04;;;;;;;10.27;6.80;;;-0.30;99.90;;;0.15;78.25;-19731.97;5070795;28;20220;-58
2022/03/01 01:06:32;;;;;;;11.90;6.73;;;-0.40;99.90;;;0.11;78.13;-19730.59;5071001;28;20252;-60
2022/03/01 01:09:01;;;;;;;11.33;7.27;;;-0.40;99.90;;;0.33;77.85;-19738.09;5070939;28;20303;-58
2022/03/01 01:11:28;;;;;;;11.07;7.13;;;-0.40;99.90;;;0.69;75.43;-19750.41;5071137;28;20226;-60
2022/03/01 01:13:58;;;;;;;9.37;6.90;;;-0.30;99.90;;;0.38;77.12;-19739.81;5071478;28;20251;-62
2022/03/01 01:16:26;;;;;;;11.07;6.67;;;-0.30;99.90;;;0.29;77.93;-19736.75;5070124;28;20643;-59
2022/03/01 01:18:55;;;;;;;10.70;7.20;;;-0.40;99.90;;;0.35;76.93;-19738.78;5070605;28;20286;-59
2022/03/01 01:22:39;;;;;;;10.33;6.53;;;-0.30;99.90;;;0.32;77.42;-19737.59;5070899;28;20239;-60
2022/03/01 01:24:13;;;;;;;10.70;6.67;;;-0.40;99.90;;;0.15;77.83;-19731.78;5070383;28;20228;-59
2022/03/01 01:26:42;;;;;;;10.30;6.73;;;-0.50;99.90;;;-0.03;79.78;-19725.97;5070480;28;20225;-61
2022/03/01 01:29:12;;;;;;;9.90;6.53;;;-0.50;99.90;;;-0.13;79.91;-19722.56;5070710;28;20234;-59
2022/03/01 01:31:40;;;;;;;11.97;7.00;;;-0.60;99.90;;;-0.08;80.14;-19724.09;5071218;28;20205;-59
2022/03/01 01:34:08;;;;;;;9.57;6.87;;;-0.60;99.90;;;0.05;79.76;-19728.38;5070378;28;20340;-62
2022/03/01 01:36:36;;;;;;;9.47;7.00;;;-0.70;99.90;;;-0.04;79.89;-19725.63;5070689;28;20587;-61
2022/03/01 01:39:04;;;;;;;10.90;7.23;;;-0.70;99.90;;;-0.02;79.22;-19726.31;5079063;28;20225;-59
2022/03/01 01:41:32;;;;;;;10.40;7.43;;;-0.70;99.90;;;0.09;78.49;-19729.72;5090552;28;20226;-60
2022/03/01 01:44:05;;;;;;;10.80;7.20;;;-0.60;99.90;;;0.04;78.32;-19728.19;5090259;28;20589;-59
2022/03/01 01:46:36;;;;;;;11.13;7.73;;;-0.60;99.90;;;-0.04;79.09;-19725.63;5090890;28;20754;-60
2022/03/01 01:49:04;;;;;;;10.97;7.13;;;-0.60;99.90;;;0.34;77.34;-19738.44;5090455;28;20224;-60
2022/03/01 01:51:32;;;;;;;12.50;6.83;;;-0.60;99.90;;;0.06;78.19;-19728.69;5090363;28;20247;-59
2022/03/01 01:54:01;;;;;;;12.77;7.20;;;-0.60;99.90;;;-0.04;79.06;-19725.63;5089891;28;20223;-59
2022/03/01 01:56:29;;;;;;;11.40;7.57;;;-0.70;99.90;;;-0.23;80.27;-19719.13;5090449;28;20228;-60
2022/03/01 01:58:57;;;;;;;10.40;7.17;;;-0.70;99.90;;;-0.22;79.75;-19719.31;5090764;28;20207;-60
2022/03/01 02:01:25;;;;;;;10.17;7.13;;;-0.80;99.90;;;-0.26;79.50;-19717.94;5089928;28;20214;-59
2022/03/01 02:03:54;;;;;;;10.00;7.40;;;-0.80;99.90;;;-0.31;79.66;-19716.41;5089941;28;20228;-59
2022/03/01 02:06:25;;;;;;;11.23;7.37;;;-0.80;99.90;;;-0.27;79.43;-19717.75;5089943;28;20365;-59
2022/03/01 02:08:53;;;;;;;10.67;7.00;;;-0.90;99.90;;;-0.23;79.97;-19718.97;5089997;28;20314;-59
2022/03/01 02:11:21;;;;;;;9.67;7.00;;;-0.80;99.90;;;-0.20;78.64;-19720.16;5090076;28;20233;-59
2022/03/01 02:13:49;;;;;;;11.57;7.93;;;-0.80;99.90;;;-0.30;80.23;-19716.75;5091000;28;20228;-59
2022/03/01 02:16:17;;;;;;;9.60;7.20;;;-0.90;99.90;;;-0.12;79.39;-19722.88;5089736;28;20239;-59
2022/03/01 02:18:46;;;;;;;11.23;7.50;;;-0.90;99.90;;;-0.09;78.31;-19723.91;5089941;28;20257;-58
2022/03/01 02:21:15;;;;;;;9.97;7.10;;;-0.80;99.90;;;-0.25;78.93;-19718.44;5089827;28;20313;-59
2022/03/01 02:23:43;;;;;;;10.93;6.83;;;-0.80;99.90;;;-0.31;80.04;-19716.41;5090367;28;20319;-59
2022/03/01 02:26:11;;;;;;;11.90;7.70;;;-0.90;99.90;;;-0.32;80.16;-19716.06;5089635;28;20716;-59
2022/03/01 02:28:39;;;;;;;10.73;7.03;;;-0.90;99.90;;;-0.54;81.10;-19708.38;5090963;28;20297;-59
2022/03/01 02:31:07;;;;;;;9.53;7.37;;;-1.00;99.90;;;-0.43;81.55;-19712.28;5089589;28;20812;-60
2022/03/01 02:33:35;;;;;;;10.93;7.87;;;-1.00;99.90;;;-0.55;82.09;-19708.19;5090093;28;20237;-60
2022/03/01 02:36:03;;;;;;;10.83;7.53;;;-1.10;99.90;;;-0.39;81.34;-19713.66;5089686;28;20344;-59
2022/03/01 02:38:35;;;;;;;9.37;7.20;;;-1.10;99.90;;;-0.36;81.41;-19714.69;5089947;28;20601;-57
2022/03/01 02:41:03;;;;;;;10.20;7.60;;;-1.00;99.90;;;-0.45;81.47;-19711.44;5089961;28;20245;-60
2022/03/01 02:43:31;;;;;;;9.57;7.10;;;-1.10;99.90;;;-0.27;81.43;-19717.75;5089991;28;20732;-59
2022/03/01 02:45:58;;;;;;;11.57;7.83;;;-1.00;99.90;;;-0.45;81.86;-19711.59;5089574;28;20767;-59
2022/03/01 02:48:27;;;;;;;10.30;7.10;;;-1.10;99.90;;;-0.44;81.92;-19711.78;5089696;28;20386;-59
2022/03/01 02:50:54;;;;;;;12.67;7.43;;;-1.10;99.90;;;-0.29;80.62;-19717.06;5089584;28;20238;-60
2022/03/01 02:53:22;;;;;;;11.30;7.87;;;-1.00;99.90;;;-0.45;82.98;-19711.59;5089946;28;20226;-60
2022/03/01 02:55:52;;;;;;;9.60;7.10;;;-1.00;99.90;;;-0.27;81.43;-19717.59;5093717;28;20222;-58
2022/03/01 02:58:20;;;;;;;10.17;7.47;;;-1.00;99.90;;;-0.41;81.38;-19712.97;5093909;28;20312;-60
2022/03/01 03:00:48;;;;;;;11.20;7.33;;;-1.00;99.90;;;-0.37;80.75;-19714.16;5093210;28;20248;-58
2022/03/01 03:03:16;;;;;;;13.50;8.20;;;-1.00;99.90;;;-0.42;81.53;-19712.47;5093501;28;20225;-59
2022/03/01 03:05:44;;;;;;;10.43;7.60;;;-1.00;99.90;;;-0.42;81.60;-19712.47;5093451;28;20234;-58
2022/03/01 03:08:13;;;;;;;13.43;8.27;;;-1.00;99.90;;;-0.35;82.15;-19715.03;5093251;28;20769;-59
2022/03/01 03:10:42;;;;;;;11.97;7.70;;;-1.10;99.90;;;-0.31;80.89;-19716.41;5093762;28;20588;-57
2022/03/01 03:13:12;;;;;;;11.50;7.47;;;-1.10;99.90;;;-0.51;82.08;-19709.38;5093037;28;20223;-60
2022/03/01 03:15:41;;;;;;;10.00;7.53;;;-1.10;99.90;;;-0.54;81.97;-19708.53;5093226;28;20250;-60
2022/03/01 03:18:09;;;;;;;11.23;7.67;;;-1.10;99.90;;;-0.32;81.83;-19716.06;5093450;28;20233;-58
2022/03/01 03:20:37;;;;;;;12.73;8.20;;;-1.10;99.90;;;-0.56;83.14;-19707.69;5093150;28;20224;-59
2022/03/01 03:23:05;;;;;;;11.63;7.70;;;-1.10;99.90;;;-0.53;83.78;-19708.88;5093762;28;20201;-60
2022/03/01 03:25:34;;;;;;;11.93;7.63;;;-1.10;99.90;;;-0.43;83.02;-19712.28;5093893;28;20666;-60
2022/03/01 03:28:02;;;;;;;11.47;8.10;;;-1.20;99.90;;;-0.50;83.68;-19709.91;5092859;28;20307;-59
2022/03/01 03:30:32;;;;;;;11.33;7.83;;;-1.20;99.90;;;-0.41;83.18;-19712.97;5092534;28;20224;-59
2022/03/01 03:33:00;;;;;;;9.73;7.67;;;-1.20;99.90;;;-0.35;81.64;-19714.84;5093090;28;20307;-60
2022/03/01 03:35:28;;;;;;;10.37;7.90;;;-1.10;99.90;;;-0.61;82.91;-19706.13;5093127;28;20310;-59
2022/03/01 03:37:56;;;;;;;11.80;8.07;;;-1.20;99.90;;;-0.66;83.33;-19704.25;5093243;28;20258;-62
2022/03/01 03:40:24;;;;;;;10.50;7.67;;;-1.20;99.90;;;-0.60;83.70;-19706.47;5093246;28;20292;-59
2022/03/01 03:42:52;;;;;;;12.10;7.97;;;-1.30;99.90;;;-0.69;83.81;-19703.41;5092728;28;20667;-59
2022/03/01 03:45:21;;;;;;;9.77;7.03;;;-1.30;99.90;;;-0.50;83.39;-19709.91;5092648;28;20266;-60
2022/03/01 03:47:50;;;;;;;12.03;8.40;;;-1.20;99.90;;;-0.60;83.69;-19706.47;5092577;28;20230;-60
2022/03/01 03:50:18;;;;;;;12.53;7.57;;;-1.30;99.90;;;-0.44;82.94;-19711.94;5092262;28;20702;-60
2022/03/01 03:52:46;;;;;;;9.63;7.63;;;-1.30;99.90;;;-0.59;83.41;-19706.81;5093098;28;20203;-60
2022/03/01 03:55:14;;;;;;;10.03;7.50;;;-1.30;99.90;;;-0.75;84.27;-19701.34;5092594;28;20309;-58
2022/03/01 03:57:42;;;;;;;11.40;7.60;;;-1.30;99.90;;;-0.69;84.39;-19703.22;5092451;28;20315;-57
2022/03/01 04:00:16;;;;;;;9.43;7.53;;;-1.30;99.90;;;-0.66;83.52;-19704.44;5092404;28;20234;-60
2022/03/01 04:02:46;;;;;;;10.60;7.03;;;-1.30;99.90;;;-0.82;84.72;-19698.97;5092650;28;20230;-60
2022/03/01 04:05:16;;;;;;;11.13;7.20;;;-1.40;99.90;;;-0.75;84.16;-19701.34;5092226;28;20206;-59
2022/03/01 04:07:47;;;;;;;10.30;7.60;;;-1.40;99.90;;;-0.61;83.76;-19705.97;5092575;28;20224;-59
2022/03/01 04:10:17;;;;;;;12.47;8.47;;;-1.30;99.90;;;-0.60;83.35;-19706.31;5092322;28;20321;-59
2022/03/01 04:12:45;;;;;;;11.03;7.60;;;-1.30;99.90;;;-0.80;84.06;-19699.47;5091929;28;20238;-58
2022/03/01 04:15:13;;;;;;;12.07;8.10;;;-1.40;99.90;;;-0.71;84.05;-19702.72;5092278;28;20227;-62
2022/03/01 04:17:42;;;;;;;10.37;7.57;;;-1.40;99.90;;;-0.77;84.12;-19700.50;5092201;28;20311;-60
2022/03/01 04:20:11;;;;;;;12.67;8.20;;;-1.40;99.90;;;-0.68;83.17;-19703.75;5092220;28;20249;-61
2022/03/01 04:22:41;;;;;;;11.23;7.77;;;-1.40;99.90;;;-0.63;83.45;-19705.47;5092708;28;20272;-59
2022/03/01 04:25:10;;;;;;;9.87;7.30;;;-1.30;99.90;;;-0.64;83.56;-19705.09;5091967;28;20246;-59
2022/03/01 04:27:39;;;;;;;10.93;7.40;;;-1.40;99.90;;;-0.83;84.16;-19698.59;5091399;28;20219;-60
2022/03/01 04:30:11;;;;;;;10.73;7.60;;;-1.40;99.90;;;-0.65;84.24;-19704.78;5091653;28;20229;-57
2022/03/01 04:32:40;;;;;;;11.87;8.10;;;-1.40;99.90;;;-0.73;83.82;-19702.03;5092079;28;20246;-61
2022/03/01 04:35:10;;;;;;;11.13;7.50;;;-1.30;99.90;;;-0.82;85.25;-19698.97;5092098;28;20214;-59
2022/03/01 04:37:39;;;;;;;10.03;7.47;;;-1.40;99.90;;;-0.77;84.71;-19700.50;5092107;28;20799;-60
2022/03/01 04:40:12;;;;;;;13.73;8.37;;;-1.40;99.90;;;-0.92;84.95;-19695.53;5091582;28;20780;-59
2022/03/01 04:42:41;;;;;;;12.03;8.23;;;-1.40;99.90;;;-0.88;84.97;-19696.91;5091626;28;20601;-59
2022/03/01 04:45:11;;;;;;;10.70;7.50;;;-1.50;99.90;;;-0.89;84.77;-19696.56;5091536;28;20241;-59
2022/03/01 04:47:40;;;;;;;12.63;8.20;;;-1.50;99.90;;;-0.80;84.49;-19699.63;5091654;28;20224;-60
2022/03/01 04:50:08;;;;;;;10.37;7.10;;;-1.50;99.90;;;-0.83;84.34;-19698.59;5091683;28;20195;-59
2022/03/01 04:52:36;;;;;;;10.00;8.07;;;-1.50;99.90;;;-0.80;84.39;-19699.47;5092095;28;20579;-59
2022/03/01 04:55:06;;;;;;;13.47;8.10;;;-1.50;99.90;;;-0.85;85.42;-19697.94;5091602;28;20230;-60
2022/03/01 04:57:36;;;;;;;11.93;7.60;;;-1.50;99.90;;;-0.90;84.86;-19696.22;5091052;28;20629;-59
2022/03/01 05:00:10;;;;;;;9.87;7.77;;;-1.50;99.90;;;-0.96;85.91;-19694.00;5091160;28;20313;-59
2022/03/01 05:02:41;;;;;;;10.33;7.63;;;-1.50;99.90;;;-0.86;85.87;-19697.41;5091239;28;20346;-59
2022/03/01 05:05:11;;;;;;;11.77;8.30;;;-1.50;99.90;;;-0.95;85.93;-19694.34;5091597;28;20214;-59
2022/03/01 05:07:40;;;;;;;10.67;7.03;;;-1.60;99.90;;;-0.76;85.71;-19701.00;5091717;28;20223;-60
2022/03/01 05:10:11;;;;;;;9.67;7.33;;;-1.60;99.90;;;-0.77;85.79;-19700.66;5091040;28;20233;-59
2022/03/01 05:12:44;;;;;;;13.20;8.57;;;-1.50;99.90;;;-0.71;85.60;-19702.56;5090972;28;20306;-61
2022/03/01 05:15:13;;;;;;;10.50;7.43;;;-1.50;99.90;;;-0.71;84.98;-19702.72;5091232;28;20538;-59
2022/03/01 05:17:41;;;;;;;11.40;8.57;;;-1.50;99.90;;;-0.90;85.36;-19696.06;5090510;28;20303;-61
2022/03/01 05:20:11;;;;;;;9.87;7.93;;;-1.50;99.90;;;-0.77;84.83;-19700.50;5090850;28;20268;-59
2022/03/01 05:22:40;;;;;;;12.67;7.70;;;-1.50;99.90;;;-0.93;85.34;-19695.19;5091773;28;20215;-59
2022/03/01 05:25:12;;;;;;;11.90;7.37;;;-1.50;99.90;;;-0.91;85.61;-19695.72;5090857;28;20741;-58
2022/03/01 05:27:44;;;;;;;10.33;7.60;;;-1.50;99.90;;;-0.80;85.64;-19699.47;5090696;28;20256;-62
2022/03/01 05:30:15;;;;;;;11.33;7.97;;;-1.60;99.90;;;-0.90;86.39;-19696.22;5090724;28;20225;-60
2022/03/01 05:32:47;;;;;;;12.80;8.47;;;-1.60;99.90;;;-0.66;85.23;-19704.25;5090929;28;20216;-59
2022/03/01 05:35:17;;;;;;;13.37;7.83;;;-1.50;99.90;;;-0.93;85.22;-19695.03;5091002;28;20215;-60
2022/03/01 05:37:49;;;;;;;12.40;7.87;;;-1.50;99.90;;;-1.03;86.70;-19691.59;5091437;28;20246;-59
2022/03/01 05:40:17;;;;;;;10.30;7.47;;;-1.60;99.90;;;-1.10;87.38;-19689.38;5090673;28;20221;-59
2022/03/01 05:42:47;;;;;;;11.50;8.40;;;-1.70;99.90;;;-0.92;86.48;-19695.53;5090327;28;20714;-60
2022/03/01 05:45:16;;;;;;;11.20;7.80;;;-1.60;99.90;;;-0.82;85.97;-19698.97;5090807;28;20246;-60
2022/03/01 05:47:44;;;;;;;11.57;8.10;;;-1.60;99.90;;;-0.71;85.38;-19702.56;5090385;28;20227;-59
2022/03/01 05:50:15;;;;;;;10.97;7.77;;;-1.60;99.90;;;-0.89;85.88;-19696.38;5090695;28;20638;-59
2022/03/01 05:52:48;;;;;;;10.60;7.97;;;-1.50;99.90;;;-1.05;87.10;-19690.91;5091200;28;20203;-61
2022/03/01 05:55:17;;;;;;;12.20;7.80;;;-1.60;99.90;;;-1.02;86.86;-19692.13;5090718;28;20314;-60
2022/03/01 05:57:46;;;;;;;10.30;7.73;;;-1.60;99.90;;;-0.98;86.16;-19693.47;5090417;28;20227;-58
2022/03/01 06:00:18;;;;;;;10.37;8.00;;;-1.60;99.90;;;-0.98;85.79;-19693.31;5090263;28;20307;-62
2022/03/01 06:02:49;;;;;;;11.07;7.50;;;-1.60;99.90;;;-1.05;86.76;-19690.91;5090543;28;20250;-59
2022/03/01 06:05:18;;;;;;;14.43;7.93;;;-1.60;99.90;;;-0.85;85.00;-19697.75;5090416;28;20254;-59
2022/03/01 06:07:47;;;;;;;10.70;7.70;;;-1.60;99.90;;;-0.68;83.97;-19703.56;5090553;28;20314;-60
2022/03/01 06:10:15;;;;;;;12.13;7.93;;;-1.50;99.90;;;-0.66;83.25;-19704.44;5089914;28;20764;-60
2022/03/01 06:12:43;;;;;;;12.97;7.97;;;-1.40;99.90;;;-0.91;84.78;-19695.88;5090183;28;20308;-58
2022/03/01 06:15:15;;;;;;;11.53;8.00;;;-1.50;99.90;;;-0.71;83.31;-19702.56;5089783;28;20236;-58
2022/03/01 06:17:43;;;;;;;11.33;8.37;;;-1.50;99.90;;;-0.86;84.40;-19697.41;5090507;28;20228;-58
2022/03/01 06:20:13;;;;;;;12.87;8.10;;;-1.50;99.90;;;-0.77;84.05;-19700.66;5089847;28;20296;-59
2022/03/01 06:22:42;;;;;;;12.60;8.77;;;-1.40;99.90;;;-0.61;82.39;-19706.13;5090873;28;20285;-60
2022/03/01 06:25:11;;;;;;;10.47;8.13;;;-1.40;99.90;;;-0.68;82.83;-19703.56;5090811;28;20589;-58
2022/03/01 06:27:40;;;;;;;10.83;8.10;;;-1.30;99.90;;;-0.63;83.08;-19705.28;5090677;28;20249;-55
2022/03/01 06:30:11;;;;;;;13.30;8.10;;;-1.30;99.90;;;-0.57;83.19;-19707.50;5090557;28;20325;-59
2022/03/01 06:32:41;;;;;;;14.67;8.00;;;-1.20;99.90;;;-0.44;81.95;-19711.94;5090653;28;20662;-58
2022/03/01 06:35:11;;;;;;;13.03;8.27;;;-1.10;99.90;;;-0.50;81.55;-19709.91;5090244;28;20699;-55
2022/03/01 06:37:45;;;;;;;10.10;8.03;;;-1.10;99.90;;;-0.32;81.16;-19716.06;5091006;28;20692;-60
2022/03/01 06:40:14;;;;;;;13.70;7.63;;;-1.10;99.90;;;-0.26;79.25;-19717.94;5090231;28;20677;-57
2022/03/01 06:42:42;;;;;;;11.10;7.50;;;-0.90;99.90;;;-0.31;80.08;-19716.41;5090359;28;20305;-56
2022/03/01 06:45:13;;;;;;;10.03;7.57;;;-0.90;99.90;;;-0.21;80.05;-19719.66;5090350;28;20219;-59
2022/03/01 06:47:43;;;;;;;11.40;8.60;;;-0.90;99.90;;;-0.04;79.06;-19725.63;5090386;28;20653;-60
2022/03/01 06:50:11;;;;;;;12.30;8.17;;;-0.80;99.90;;;-0.10;78.58;-19723.56;5090366;28;20197;-58
2022/03/01 06:52:39;;;;;;;11.40;7.97;;;-0.70;99.90;;;0.12;78.28;-19730.75;5091187;28;20293;-58
2022/03/01 06:55:10;;;;;;;16.87;7.70;;;-0.60;99.90;;;0.09;78.23;-19729.91;5090301;28;20246;-57
2022/03/01 06:57:39;;;;;;;10.17;7.80;;;-0.50;99.90;;;0.39;77.24;-19740.16;5089900;28;20303;-61
2022/03/01 07:00:10;;;;;;;11.67;8.30;;;-0.40;99.90;;;0.42;77.46;-19741.00;5090289;28;20316;-58
2022/03/01 07:02:39;;;;;;;12.80;7.63;;;-0.30;99.90;;;0.53;76.70;-19744.78;5090572;28;20218;-58
2022/03/01 07:05:12;;;;;;;9.73;7.17;;;-0.10;99.90;;;0.56;76.83;-19745.81;5090402;28;20204;-57
2022/03/01 07:07:41;;;;;;;11.33;7.07;;;-0.10;99.90;;;0.71;75.30;-19750.94;5090887;28;20233;-58
2022/03/01 07:10:12;;;;;;;10.63;7.70;;;0.00;99.90;;;0.98;72.26;-19760.16;5089926;28;20652;-58
2022/03/01 07:12:42;;;;;;;12.97;8.67;;;0.20;99.90;;;1.12;70.70;-19765.13;5090066;28;20222;-58
2022/03/01 07:15:12;;;;;;;9.87;6.83;;;0.30;99.90;;;1.24;68.41;-19769.06;5089834;28;20248;-58
2022/03/01 07:17:45;;;;;;;9.33;6.47;;;0.50;99.90;;;1.31;67.74;-19771.28;5090190;28;20221;-56
2022/03/01 07:20:15;;;;;;;9.10;7.13;;;0.60;99.90;;;1.61;65.68;-19781.53;5090227;28;20207;-58
2022/03/01 07:22:44;;;;;;;9.10;6.40;;;0.80;99.90;;;1.75;65.43;-19786.31;5091112;28;20231;-56
2022/03/01 07:25:14;;;;;;;10.83;7.27;;;0.90;99.90;;;1.72;64.75;-19785.47;5090181;28;20228;-57
2022/03/01 07:27:49;;;;;;;11.83;6.83;;;1.00;99.90;;;1.77;64.38;-19787.19;5090370;28;20227;-57
2022/03/01 07:30:18;;;;;;;8.47;6.40;;;1.10;99.90;;;2.00;64.20;-19794.88;5090167;28;20228;-56
2022/03/01 07:32:46;;;;;;;9.13;6.97;;;1.30;99.90;;;2.06;64.04;-19797.09;5090529;28;20300;-56
2022/03/01 07:35:16;;;;;;;11.47;7.40;;;1.40;99.90;;;2.29;63.26;-19804.97;5089938;28;20614;-56
2022/03/01 07:37:44;;;;;;;11.67;6.93;;;1.50;99.90;;;2.47;62.37;-19811.09;5090612;28;20335;-59
2022/03/01 07:40:19;;;;;;;10.60;7.17;;;1.60;99.90;;;2.54;61.87;-19813.34;5090117;28;20226;-55
2022/03/01 07:42:48;;;;;;;13.83;8.33;;;1.70;99.90;;;2.54;61.49;-19813.34;5092495;28;20223;-56
2022/03/01 07:45:16;;;;;;;8.33;6.83;;;1.80;99.90;;;2.87;59.86;-19824.44;5092682;28;20331;-57
2022/03/01 07:47:44;;;;;;;9.27;6.93;;;1.90;99.90;;;2.76;59.90;-19820.69;5095218;28;20224;-60
2022/03/01 07:50:13;;;;;;;9.20;7.00;;;1.90;99.90;;;2.72;60.56;-19819.50;5093504;28;20204;-59
2022/03/01 07:52:42;;;;;;;11.17;6.73;;;2.00;99.90;;;2.85;60.09;-19823.75;5094387;28;20296;-60
2022/03/01 07:55:11;;;;;;;9.03;6.73;;;2.00;99.90;;;3.02;59.12;-19829.75;5093357;28;20310;-60
2022/03/01 07:57:39;;;;;;;8.50;6.77;;;2.20;99.90;;;3.34;57.92;-19840.69;5093392;28;20234;-60
2022/03/01 08:00:09;;;;;;;9.03;6.60;;;2.30;99.90;;;3.11;59.27;-19832.81;5093205;28;20239;-57
2022/03/01 08:02:41;;;;;;;9.93;6.77;;;2.30;99.90;;;3.19;58.63;-19835.38;5093474;28;20226;-54
2022/03/01 08:05:11;;;;;;;9.17;6.53;;;2.40;99.90;;;3.35;58.15;-19840.84;5093345;28;20231;-54
2022/03/01 08:07:52;;;;;;;9.73;6.27;;;2.50;99.90;;;3.51;56.36;-19846.31;5093918;28;20293;-56
2022/03/01 08:10:20;;;;;;;11.20;6.90;;;2.60;99.90;;;3.60;56.54;-19849.56;5092902;28;20263;-58
2022/03/01 08:12:48;;;;;;;10.87;6.97;;;2.60;99.90;;;3.54;56.10;-19847.53;5092795;28;20805;-58
2022/03/01 08:15:16;;;;;;;10.43;6.30;;;2.70;99.90;;;3.50;56.32;-19846.00;5092950;28;20308;-58
2022/03/01 08:17:49;;;;;;;9.70;6.30;;;2.70;99.90;;;3.74;55.77;-19854.19;5092750;28;20659;-57
2022/03/01 08:20:17;;;;;;;11.13;6.50;;;2.80;99.90;;;3.94;55.36;-19861.03;5092626;28;20616;-57
2022/03/01 08:22:45;;;;;;;7.60;6.00;;;2.90;99.90;;;3.98;55.12;-19862.22;5093606;28;20246;-58
2022/03/01 08:25:16;;;;;;;8.53;6.43;;;3.10;99.90;;;4.11;53.91;-19866.84;5092807;28;20833;-56
2022/03/01 08:27:44;;;;;;;8.57;6.13;;;3.20;99.90;;;4.18;54.38;-19869.06;5092593;28;20263;-58
2022/03/01 08:30:14;;;;;;;9.10;6.30;;;3.30;99.90;;;4.37;53.39;-19875.72;5092253;28;20840;-57
2022/03/01 08:32:42;;;;;;;8.87;6.37;;;3.40;99.90;;;4.57;51.55;-19882.56;5092420;28;20775;-59
2022/03/01 08:35:10;;;;;;;9.47;6.87;;;3.50;99.90;;;4.49;52.04;-19879.81;5092813;28;20208;-57
2022/03/01 08:37:38;;;;;;;10.03;7.20;;;3.40;99.90;;;4.45;51.63;-19878.28;5092758;28;20312;-58
2022/03/01 08:40:08;;;;;;;9.40;6.90;;;3.40;99.90;;;4.42;51.92;-19877.44;5092627;28;20254;-59
2022/03/01 08:42:38;;;;;;;8.73;6.77;;;3.40;99.90;;;4.51;50.75;-19880.34;5092139;28;20252;-58
2022/03/01 08:45:08;;;;;;;8.23;5.83;;;3.40;99.90;;;4.47;50.55;-19879.16;5092124;28;20228;-56
2022/03/01 08:47:41;;;;;;;9.13;6.20;;;3.50;99.90;;;4.52;51.12;-19880.84;5092302;28;20220;-55
2022/03/01 08:50:10;;;;;;;10.17;7.43;;;3.60;99.90;;;4.72;50.99;-19887.69;5092093;28;20840;-55
2022/03/01 08:52:59;;;;;;;9.23;6.57;;;3.70;99.90;;;4.91;50.39;-19894.00;5090575;28;20200;-56
2022/03/01 08:55:27;;;;;;;7.40;5.77;;;3.80;99.90;;;4.98;49.21;-19896.59;5067900;28;20232;-53
2022/03/01 08:57:58;;;;;;;7.73;5.97;;;4.00;99.90;;;5.09;48.86;-19900.00;5071293;28;20239;-56
2022/03/01 09:00:27;;;;;;;9.50;6.77;;;4.10;99.90;;;5.24;48.95;-19905.31;5071177;28;20315;-53
2022/03/01 09:02:58;;;;;;;9.90;6.30;;;4.10;99.90;;;5.46;48.28;-19912.66;5075460;28;20219;-54
2022/03/01 09:05:27;;;;;;;8.80;5.97;;;4.20;99.90;;;5.29;48.33;-19906.84;5070173;28;20253;-54
2022/03/01 09:07:55;;;;;;;7.57;6.07;;;4.20;99.90;;;5.25;46.79;-19905.47;5077413;28;20289;-55
2022/03/01 09:10:28;;;;;;;7.90;5.90;;;4.20;99.90;;;5.11;47.13;-19900.69;5076352;28;20602;-53
2022/03/01 09:13:00;;;;;;;7.50;6.07;;;4.20;99.90;;;5.27;47.58;-19906.31;5069828;28;20564;-54
2022/03/01 09:15:31;;;;;;;7.77;6.10;;;4.20;99.90;;;5.33;47.18;-19908.19;5088623;28;20531;-55
2022/03/01 09:18:00;;;;;;;8.10;5.93;;;4.20;99.90;;;5.58;46.36;-19916.91;5072946;28;20262;-50
2022/03/01 09:20:29;;;;;;;7.83;5.47;;;4.40;99.90;;;5.34;46.00;-19908.72;5091558;28;20220;-53
2022/03/01 09:22:58;;;;;;;7.50;5.93;;;4.30;99.90;;;5.59;45.65;-19917.09;5060993;28;20306;-56
2022/03/01 09:25:27;;;;;;;8.17;5.70;;;4.40;99.90;;;5.63;46.32;-19918.47;5082871;28;20338;-57
2022/03/01 09:27:55;;;;;;;8.97;6.17;;;4.50;99.90;;;5.84;45.07;-19925.63;5080473;28;20571;-56
2022/03/01 09:30:27;;;;;;;9.17;5.70;;;4.70;99.90;;;5.68;45.69;-19920.16;5079242;28;20224;-57
2022/03/01 09:32:55;;;;;;;6.90;5.47;;;4.60;99.90;;;5.77;44.49;-19923.41;5091652;28;20703;-57
2022/03/01 09:35:23;;;;;;;10.33;6.57;;;4.70;99.90;;;5.56;45.42;-19916.06;5076663;28;20265;-55
2022/03/01 09:37:52;;;;;;;8.20;6.10;;;4.60;99.90;;;5.80;44.77;-19924.44;5070693;28;20235;-55
2022/03/01 09:40:20;;;;;;;8.70;6.07;;;4.70;99.90;;;5.81;43.24;-19924.59;5070957;28;20290;-57
2022/03/01 09:42:51;;;;;;;8.20;5.93;;;4.70;99.90;;;5.98;43.29;-19930.59;5076989;28;20518;-58
2022/03/01 09:45:20;;;;;;;7.97;6.23;;;4.80;99.90;;;5.96;43.22;-19929.91;5090759;28;20231;-57
2022/03/01 09:47:51;;;;;;;8.27;6.30;;;4.90;99.90;;;5.99;44.14;-19930.94;5090856;28;20345;-54
2022/03/01 09:50:22;;;;;;;7.73;5.60;;;4.90;99.90;;;5.95;43.82;-19929.56;5090873;28;20231;-57
2022/03/01 09:52:50;;;;;;;8.10;6.17;;;4.90;99.90;;;6.00;44.21;-19931.13;5091074;28;20306;-54
2022/03/01 09:55:17;;;;;;;7.53;5.67;;;4.90;99.90;;;6.10;44.64;-19934.53;5091917;28;20248;-56
2022/03/01 09:57:45;;;;;;;11.13;5.93;;;5.10;99.90;;;6.26;45.23;-19939.81;5091805;28;20318;-51
2022/03/01 10:00:14;;;;;;;9.27;6.07;;;5.20;99.90;;;6.40;44.62;-19944.59;5082021;28;20244;-53
2022/03/01 10:02:44;;;;;;;8.53;6.07;;;5.30;99.90;;;6.63;44.12;-19952.47;5070526;28;20228;-58
2022/03/01 10:05:15;;;;;;;8.40;5.90;;;5.50;99.90;;;6.82;44.11;-19959.13;5071469;28;20254;-59
2022/03/01 10:07:48;;;;;;;7.50;5.83;;;5.50;99.90;;;6.84;43.51;-19959.81;5070780;28;20247;-54
2022/03/01 10:10:18;;;;;;;8.07;6.30;;;5.70;99.90;;;6.80;43.41;-19958.28;5070868;28;20207;-59
2022/03/01 10:12:55;;;;;;;7.43;5.30;;;5.80;99.90;;;7.00;41.79;-19965.13;5071360;28;20201;-58
2022/03/01 10:15:29;;;;;;;8.93;6.03;;;5.90;99.90;;;6.92;40.62;-19962.38;5070109;28;20313;-57
2022/03/01 10:17:57;;;;;;;6.70;5.90;;;5.90;99.90;;;6.84;41.68;-19959.81;5070383;28;20231;-58
2022/03/01 10:20:27;;;;;;;7.33;5.80;;;5.70;99.90;;;6.87;42.32;-19960.84;5070357;28;20227;-55
2022/03/01 10:22:58;;;;;;;7.70;5.87;;;5.70;99.90;;;6.84;41.50;-19959.81;5070357;28;20231;-54